Time;durP1;ratioP1;P1;durP2;ratioP2;P2;SDS_P1;SDS_P2;PMS_P1;PMS_P2;Temp;Humidity;BMP_temperature;BMP_pressure;BME280_temperature;BME280_humidity;BME280_pressure;Samples;Min_cycle;Max_cycle;Signal;HPM_P1;HPM_P2
2022/06/23 00:01:22;;;;;;;1.88;0.90;;;13.00;99.90;;;;;;6219855;23;20052;-90
2022/06/23 00:03:54;;;;;;;3.00;0.90;;;12.90;99.90;;;;;;6219537;23;20020;-90
2022/06/23 00:06:47;;;;;;;1.30;0.80;;;13.00;99.90;;;;;;6246266;23;20023;-89
2022/06/23 00:09:41;;;;;;;1.20;0.80;;;12.90;99.90;;;;;;6219284;23;20046;-89
2022/06/23 00:12:19;;;;;;;1.73;0.88;;;12.90;99.90;;;;;;6215253;23;20450;-87
2022/06/23 00:14:52;;;;;;;1.00;0.70;;;12.90;99.90;;;;;;6219452;23;20463;-88
2022/06/23 00:17:24;;;;;;;1.38;0.80;;;12.90;99.90;;;;;;6246069;23;20019;-89
2022/06/23 00:19:51;;;;;;;1.45;0.90;;;12.80;99.90;;;;;;6245869;23;20020;-90
2022/06/23 00:22:20;;;;;;;2.38;0.90;;;12.80;99.90;;;;;;6246619;23;20050;-89
2022/06/23 00:24:52;;;;;;;1.00;0.70;;;12.80;99.90;;;;;;6246977;23;20327;-90
2022/06/23 00:27:21;;;;;;;0.77;0.70;;;12.80;99.90;;;;;;6246702;23;20027;-89
2022/06/23 00:29:47;;;;;;;1.05;0.85;;;12.80;99.90;;;;;;6219317;23;20020;-89
2022/06/23 00:32:14;;;;;;;0.68;0.60;;;12.70;99.90;;;;;;6246250;23;20035;-87
2022/06/23 00:34:50;;;;;;;1.35;0.80;;;12.70;99.90;;;;;;6246453;23;20012;-87
2022/06/23 00:37:18;;;;;;;1.83;0.98;;;12.80;99.90;;;;;;6219690;23;20016;-88
2022/06/23 00:40:00;;;;;;;1.75;0.80;;;12.80;99.90;;;;;;6246371;23;20015;-90
2022/06/23 00:42:35;;;;;;;1.50;0.88;;;12.70;99.90;;;;;;6245791;23;20018;-91
2022/06/23 00:45:10;;;;;;;1.53;1.07;;;12.60;99.90;;;;;;6219327;23;20023;-89
2022/06/23 00:47:50;;;;;;;0.95;0.75;;;12.60;99.90;;;;;;6246013;23;20020;-89
2022/06/23 00:50:31;;;;;;;1.35;1.00;;;12.60;99.90;;;;;;6219245;23;20070;-88
2022/06/23 00:53:02;;;;;;;1.30;1.00;;;12.50;99.90;;;;;;6245822;23;20371;-89
2022/06/23 00:55:37;;;;;;;1.63;0.93;;;12.50;99.90;;;;;;6245918;23;20054;-89
2022/06/23 00:58:12;;;;;;;1.83;0.90;;;12.50;99.90;;;;;;6246193;23;20095;-89
2022/06/23 01:00:40;;;;;;;0.93;0.70;;;12.50;99.90;;;;;;6246295;23;20012;-90
2022/06/23 01:03:29;;;;;;;1.52;1.10;;;12.60;99.90;;;;;;6246363;23;20016;-88
2022/06/23 01:06:07;;;;;;;1.42;0.82;;;12.40;99.90;;;;;;6219105;23;20016;-88
2022/06/23 01:08:49;;;;;;;1.30;0.80;;;12.40;99.90;;;;;;6246246;23;20105;-89
2022/06/23 01:11:25;;;;;;;0.90;0.77;;;12.40;99.90;;;;;;6246709;23;20012;-90
2022/06/23 01:14:09;;;;;;;1.75;0.82;;;12.40;99.90;;;;;;6219293;23;20021;-89
2022/06/23 01:16:49;;;;;;;1.20;0.90;;;12.40;99.90;;;;;;6219587;23;20024;-90
2022/06/23 01:19:53;;;;;;;1.55;0.82;;;12.30;99.90;;;;;;6219045;23;20054;-89
2022/06/23 01:22:51;;;;;;;1.42;0.90;;;12.30;99.90;;;;;;6246074;23;20020;-89
2022/06/23 01:25:41;;;;;;;1.88;0.90;;;12.30;99.90;;;;;;6098567;23;20461;-91
2022/06/23 01:28:19;;;;;;;2.08;1.15;;;12.20;99.90;;;;;;6098925;23;20121;-91
2022/06/23 01:30:52;;;;;;;1.20;1.00;;;11.80;99.90;;;;;;6098715;23;20033;-90
2022/06/23 01:33:29;;;;;;;1.30;1.10;;;12.20;99.90;;;;;;6098637;23;20449;-90
2022/06/23 01:36:03;;;;;;;3.30;1.23;;;12.30;99.90;;;;;;6122780;23;20025;-91
2022/06/23 01:38:51;;;;;;;1.98;1.17;;;12.20;99.90;;;;;;6123345;23;20014;-91
2022/06/23 01:41:19;;;;;;;2.53;1.13;;;12.20;99.90;;;;;;6123165;23;20032;-89
2022/06/23 01:43:59;;;;;;;1.48;1.10;;;12.20;99.90;;;;;;6098787;23;20475;-90
2022/06/23 01:46:37;;;;;;;1.88;1.23;;;12.10;99.90;;;;;;6098152;23;20014;-90
2022/06/23 01:49:20;;;;;;;1.73;1.05;;;12.40;99.90;;;;;;6123070;23;20057;-89
2022/06/23 01:51:52;;;;;;;1.33;0.90;;;12.10;99.90;;;;;;6098426;23;20029;-90
2022/06/23 01:54:21;;;;;;;1.55;1.08;;;12.10;99.90;;;;;;6098784;23;20018;-89
2022/06/23 01:57:03;;;;;;;1.90;1.08;;;12.10;99.90;;;;;;6122419;23;20476;-91
2022/06/23 01:59:54;;;;;;;1.63;1.02;;;12.10;99.90;;;;;;6122989;23;20014;-90
2022/06/23 02:02:25;;;;;;;1.80;1.20;;;12.10;99.90;;;;;;6192184;23;20024;-88
2022/06/23 02:04:51;;;;;;;2.97;1.20;;;12.00;99.90;;;;;;6244966;23;20497;-90
2022/06/23 02:07:46;;;;;;;3.15;1.30;;;12.10;99.90;;;;;;6218517;23;20020;-90
2022/06/23 02:10:25;;;;;;;2.15;1.30;;;11.90;99.90;;;;;;6213770;23;20020;-88
2022/06/23 02:13:07;;;;;;;1.98;1.15;;;11.80;99.90;;;;;;6244933;23;20020;-89
2022/06/23 02:15:44;;;;;;;2.00;1.25;;;11.80;99.90;;;;;;6218170;22;20012;-88
2022/06/23 02:18:34;;;;;;;2.25;1.15;;;11.80;99.90;;;;;;6245570;23;20020;-88
2022/06/23 02:21:31;;;;;;;1.75;1.40;;;11.70;99.90;;;;;;6245679;23;20023;-89
2022/06/23 02:24:19;;;;;;;1.95;1.13;;;11.70;99.90;;;;;;6245342;23;20012;-88
2022/06/23 02:26:58;;;;;;;1.95;1.23;;;11.70;99.90;;;;;;6244798;23;20027;-90
2022/06/23 02:29:50;;;;;;;1.85;1.17;;;11.70;99.90;;;;;;6245086;23;20121;-87
2022/06/23 02:33:00;;;;;;;1.88;1.25;;;11.70;99.90;;;;;;6245277;23;20049;-90
2022/06/23 02:35:44;;;;;;;3.35;1.30;;;11.70;99.90;;;;;;6122683;23;20022;-90
2022/06/23 02:38:25;;;;;;;3.05;1.35;;;11.60;99.90;;;;;;6098335;23;20445;-87
2022/06/23 02:41:27;;;;;;;2.38;1.35;;;11.60;99.90;;;;;;6122408;23;20029;-88
2022/06/23 02:44:28;;;;;;;2.40;1.42;;;11.60;99.90;;;;;;6122740;23;20080;-90
2022/06/23 02:47:06;;;;;;;2.08;1.25;;;11.90;99.90;;;;;;6122230;23;20014;-90
2022/06/23 02:50:05;;;;;;;1.92;1.30;;;11.60;99.90;;;;;;6122710;23;20357;-88
2022/06/23 02:52:49;;;;;;;2.92;1.20;;;11.60;99.90;;;;;;6122814;23;20080;-90
2022/06/23 02:55:36;;;;;;;2.95;1.40;;;11.60;99.90;;;;;;6122752;23;20013;-84
2022/06/23 02:58:14;;;;;;;2.15;1.33;;;11.60;99.90;;;;;;6122546;23;20021;-87
2022/06/23 03:00:39;;;;;;;2.00;1.40;;;11.60;99.90;;;;;;6097650;23;20057;-85
2022/06/23 03:03:14;;;;;;;1.50;1.00;;;12.20;99.90;;;;;;6122384;23;20373;-84
2022/06/23 03:05:40;;;;;;;2.72;1.20;;;11.70;99.90;;;;;;6161649;23;20052;-86
2022/06/23 03:08:35;;;;;;;2.08;1.05;;;11.60;99.90;;;;;;6244946;23;20153;-85
2022/06/23 03:14:38;;;;;;;1.83;1.13;;;11.70;99.90;;;;;;6244815;23;20016;-84
2022/06/23 03:17:33;;;;;;;1.95;1.30;;;11.70;99.90;;;;;;6219453;23;20018;-84
2022/06/23 03:20:32;;;;;;;1.70;1.15;;;11.70;99.90;;;;;;6246655;23;20027;-84
2022/06/23 03:23:13;;;;;;;1.70;1.20;;;11.70;99.90;;;;;;6220112;23;20087;-86
2022/06/23 03:26:16;;;;;;;1.90;1.30;;;11.70;99.90;;;;;;6247144;23;20016;-85
2022/06/23 03:29:06;;;;;;;1.83;1.08;;;11.70;99.90;;;;;;6124449;23;20017;-85
2022/06/23 03:31:49;;;;;;;1.98;1.05;;;11.70;99.90;;;;;;6124096;23;20026;-85
2022/06/23 03:34:29;;;;;;;1.70;1.02;;;11.70;99.90;;;;;;6123991;23;20014;-85
2022/06/23 03:37:01;;;;;;;3.08;1.27;;;11.70;99.90;;;;;;6099997;23;20018;-84
2022/06/23 03:42:27;;;;;;;2.60;1.30;;;11.80;99.90;;;;;;6123881;23;20037;-85
2022/06/23 03:45:12;;;;;;;2.35;1.20;;;11.80;99.90;;;;;;6099865;23;20022;-85
2022/06/23 03:47:59;;;;;;;1.73;1.10;;;12.60;99.90;;;;;;6124146;23;20028;-87
2022/06/23 03:50:43;;;;;;;1.92;1.10;;;11.80;99.90;;;;;;6123989;23;20018;-85
2022/06/23 03:53:24;;;;;;;2.20;1.00;;;11.80;99.90;;;;;;6124108;23;20096;-86
2022/06/23 03:55:54;;;;;;;2.53;1.20;;;11.90;99.90;;;;;;6124210;23;20014;-86
2022/06/23 03:58:27;;;;;;;4.00;1.33;;;12.10;99.90;;;;;;6123907;23;20449;-84
2022/06/23 04:01:03;;;;;;;1.52;0.90;;;11.80;99.90;;;;;;6124252;23;20029;-84
2022/06/23 04:03:36;;;;;;;2.33;1.15;;;11.90;99.90;;;;;;6123907;23;20013;-87
2022/06/23 04:06:22;;;;;;;2.90;1.20;;;11.90;99.90;;;;;;6201625;23;20027;-85
2022/06/23 04:09:07;;;;;;;2.15;1.30;;;11.90;99.90;;;;;;6194692;23;20097;-84
2022/06/23 04:11:51;;;;;;;1.65;0.93;;;11.90;99.90;;;;;;6246247;23;20024;-85
2022/06/23 04:14:39;;;;;;;1.98;1.00;;;12.00;99.90;;;;;;6246865;23;20016;-84
2022/06/23 04:17:18;;;;;;;2.15;1.10;;;12.80;99.90;;;;;;6246481;23;20004;-84
2022/06/23 04:19:58;;;;;;;1.92;1.10;;;12.10;99.90;;;;;;6246573;23;20351;-85
2022/06/23 04:22:41;;;;;;;1.13;0.80;;;12.20;99.90;;;;;;6246529;23;20016;-88
2022/06/23 04:25:11;;;;;;;4.85;1.00;;;12.20;99.90;;;;;;6219302;23;20083;-86
2022/06/23 04:27:47;;;;;;;1.70;0.90;;;12.30;99.90;;;;;;6245834;23;20077;-86
2022/06/23 04:30:38;;;;;;;1.42;0.82;;;12.40;99.90;;;;;;6246367;23;20012;-85
2022/06/23 04:33:13;;;;;;;1.67;0.90;;;12.40;99.90;;;;;;6244896;23;20438;-85
2022/06/23 04:35:40;;;;;;;2.00;1.30;;;12.50;99.90;;;;;;6246251;23;20020;-86
2022/06/23 04:38:26;;;;;;;3.53;1.08;;;12.60;99.90;;;;;;6246361;23;20004;-86
2022/06/23 04:41:17;;;;;;;2.45;1.42;;;12.70;99.90;;;;;;6219478;23;20016;-85
2022/06/23 04:43:53;;;;;;;2.33;1.35;;;12.80;99.90;;;;;;6246214;23;20058;-85
2022/06/23 04:46:26;;;;;;;1.80;1.13;;;13.20;99.90;;;;;;6246089;22;20035;-87
2022/06/23 04:48:59;;;;;;;2.47;1.10;;;13.00;99.90;;;;;;6246053;23;20020;-85
2022/06/23 04:51:46;;;;;;;2.92;1.30;;;13.10;99.90;;;;;;6246207;23;20012;-85
2022/06/23 04:54:11;;;;;;;2.50;1.40;;;13.30;99.90;;;;;;6218969;23;20092;-87
2022/06/23 04:57:01;;;;;;;2.80;1.23;;;13.40;99.90;;;;;;6219148;23;20568;-85
2022/06/23 04:59:51;;;;;;;1.92;1.10;;;13.50;99.90;;;;;;6218835;23;20477;-85
2022/06/23 05:02:35;;;;;;;2.22;1.20;;;13.70;99.90;;;;;;6098882;23;20104;-85
2022/06/23 05:05:31;;;;;;;3.28;1.90;;;13.70;99.90;;;;;;6098768;23;20021;-87
2022/06/23 05:08:09;;;;;;;2.85;1.80;;;13.90;99.90;;;;;;6123179;23;20029;-85
2022/06/23 05:11:09;;;;;;;3.13;1.83;;;14.00;99.90;;;;;;6099135;23;20021;-86
2022/06/23 05:13:45;;;;;;;4.70;2.67;;;14.20;99.90;;;;;;6013309;23;20023;-86
2022/06/23 05:16:19;;;;;;;6.15;3.28;;;14.30;99.90;;;;;;6012402;23;20024;-85
2022/06/23 05:18:49;;;;;;;4.43;1.75;;;14.40;99.90;;;;;;6036451;23;20019;-86
2022/06/23 05:21:29;;;;;;;5.30;2.13;;;14.50;99.90;;;;;;6036629;23;20019;-86
2022/06/23 05:23:59;;;;;;;3.10;1.98;;;14.70;99.90;;;;;;6012845;23;20059;-87
2022/06/23 05:26:42;;;;;;;3.78;2.15;;;14.80;99.90;;;;;;6038277;23;20046;-90
2022/06/23 05:29:23;;;;;;;3.08;1.77;;;14.90;99.90;;;;;;6042878;23;20016;-90
2022/06/23 05:31:53;;;;;;;3.05;1.67;;;15.30;99.90;;;;;;6042610;23;20023;-91
2022/06/23 05:34:23;;;;;;;3.25;1.80;;;15.20;99.90;;;;;;6036821;23;20063;-91
2022/06/23 05:36:56;;;;;;;4.72;2.92;;;15.30;99.90;;;;;;6036911;23;20023;-90
2022/06/23 05:39:29;;;;;;;3.72;2.00;;;15.40;99.90;;;;;;6081327;23;20331;-87
2022/06/23 05:41:59;;;;;;;3.92;2.05;;;15.60;99.90;;;;;;6098679;23;20018;-86
2022/06/23 05:44:29;;;;;;;3.50;1.92;;;15.70;99.90;;;;;;6123045;23;20472;-85
2022/06/23 05:47:00;;;;;;;4.43;2.33;;;15.80;99.90;;;;;;6123050;23;20473;-85
2022/06/23 05:49:40;;;;;;;2.83;1.60;;;16.00;99.90;;;;;;6133202;23;20018;-87
2022/06/23 05:52:15;;;;;;;2.65;2.05;;;16.20;99.90;;;;;;6245520;23;20012;-86
2022/06/23 05:54:43;;;;;;;5.65;1.88;;;16.20;99.90;;;;;;6218595;23;20016;-90
2022/06/23 05:57:15;;;;;;;4.32;2.40;;;16.40;99.90;;;;;;6218333;23;20020;-90
2022/06/23 05:59:53;;;;;;;2.65;1.60;;;16.50;99.90;;;;;;6245601;23;20020;-90
2022/06/23 06:02:39;;;;;;;2.67;1.88;;;16.60;99.90;;;;;;6218307;23;20093;-88
2022/06/23 06:05:14;;;;;;;4.32;2.03;;;16.80;99.90;;;;;;6218470;23;20031;-88
2022/06/23 06:07:42;;;;;;;4.82;2.65;;;17.00;99.90;;;;;;6218876;23;20020;-86
2022/06/23 06:10:15;;;;;;;4.55;2.25;;;17.10;99.90;;;;;;6218210;23;20059;-87
2022/06/23 06:12:43;;;;;;;4.25;2.38;;;17.20;99.90;;;;;;6218457;23;20051;-86
2022/06/23 06:15:15;;;;;;;1.98;1.55;;;17.30;99.90;;;;;;6218996;23;20065;-86
2022/06/23 06:17:41;;;;;;;5.35;3.30;;;17.40;99.90;;;;;;6218543;23;20042;-87
2022/06/23 06:20:10;;;;;;;3.90;2.50;;;17.50;99.90;;;;;;6218396;23;20027;-86
2022/06/23 06:22:55;;;;;;;2.85;2.05;;;17.80;99.90;;;;;;6193536;23;20079;-88
2022/06/23 06:25:49;;;;;;;5.73;3.50;;;17.90;99.90;;;;;;6245076;23;20016;-91
2022/06/23 06:28:23;;;;;;;2.88;1.92;;;18.00;99.90;;;;;;6193405;23;20251;-89
2022/06/23 06:31:06;;;;;;;5.05;2.42;;;18.00;99.90;;;;;;6218134;23;20099;-87
2022/06/23 06:34:11;;;;;;;4.72;3.13;;;18.20;99.90;;;;;;6218002;23;20024;-87
2022/06/23 06:36:46;;;;;;;5.63;2.90;;;18.40;99.90;;;;;;6218337;23;20700;-87
2022/06/23 06:39:34;;;;;;;4.93;2.70;;;18.60;99.90;;;;;;6218369;23;20008;-86
2022/06/23 06:42:20;;;;;;;2.67;1.88;;;18.70;99.90;;;;;;6217965;23;20282;-87
2022/06/23 06:44:47;;;;;;;;;;;18.90;99.90;;;;;;6218420;23;20020;-88
2022/06/23 06:47:28;;;;;;;6.28;2.20;;;19.00;99.90;;;;;;6217853;23;20349;-86
2022/06/23 06:49:59;;;;;;;2.47;1.70;;;19.10;99.90;;;;;;6244860;23;20012;-88
2022/06/23 06:52:27;;;;;;;4.13;2.33;;;19.20;99.90;;;;;;6244209;23;20020;-88
2022/06/23 06:55:03;;;;;;;3.38;2.08;;;19.30;99.90;;;;;;6218007;23;20020;-89
2022/06/23 06:57:36;;;;;;;3.10;1.75;;;19.40;99.90;;;;;;6218217;23;20020;-91
2022/06/23 07:00:11;;;;;;;3.33;1.50;;;19.50;99.90;;;;;;6217662;23;20439;-88
2022/06/23 07:02:47;;;;;;;3.90;2.20;;;19.70;99.90;;;;;;6245078;23;20087;-87
2022/06/23 07:05:41;;;;;;;5.30;2.60;;;19.80;99.90;;;;;;6218001;23;20461;-89
2022/06/23 07:08:31;;;;;;;3.28;2.28;;;20.00;99.90;;;;;;6244954;23;20390;-90
2022/06/23 07:11:22;;;;;;;2.47;1.38;;;20.10;99.90;;;;;;6244781;23;20020;-89
2022/06/23 07:14:23;;;;;;;2.70;1.55;;;20.30;99.90;;;;;;6192922;23;20473;-89
2022/06/23 07:17:07;;;;;;;2.25;1.60;;;20.40;99.90;;;;;;6217756;23;20339;-89
2022/06/23 07:20:11;;;;;;;2.50;1.75;;;20.60;99.90;;;;;;6218218;23;20431;-89
2022/06/23 07:23:13;;;;;;;3.42;1.40;;;20.80;99.90;;;;;;6217869;23;20043;-90
2022/06/23 07:25:55;;;;;;;5.25;2.65;;;20.90;99.90;;;;;;6216960;23;20032;-90
2022/06/23 07:28:47;;;;;;;3.65;1.83;;;21.10;99.90;;;;;;6217507;23;20023;-89
2022/06/23 07:32:06;;;;;;;2.72;2.05;;;21.00;99.90;;;;;;6217494;23;20035;-90
2022/06/23 07:34:41;;;;;;;3.60;1.92;;;21.20;99.90;;;;;;6190039;23;20027;-88
2022/06/23 07:38:01;;;;;;;2.97;1.50;;;21.40;99.90;;;;;;6245240;23;20023;-90
2022/06/23 07:41:00;;;;;;;;;;;;;;;;;;;;;
2022/06/23 07:43:52;;;;;;;2.72;1.23;;;21.70;99.90;;;;;;6049936;23;20036;-87
2022/06/23 07:46:27;;;;;;;2.47;1.52;;;21.90;99.90;;;;;;6098058;23;20022;-88
2022/06/23 07:49:51;;;;;;;2.25;1.27;;;22.00;99.90;;;;;;6098263;23;20022;-91
2022/06/23 08:00:53;;;;;;;;;;;;;;;;;;;;;
2022/06/23 08:03:35;;;;;;;2.78;1.58;;;22.70;99.90;;;;;;5961302;23;20012;-88
2022/06/23 08:22:07;;;;;;;2.80;1.85;;;22.90;99.90;;;;;;5013875;22;4116700;-88
2022/06/23 08:30:54;;;;;;;3.38;1.75;;;23.30;99.90;;;;;;5213086;22;20055;-89
2022/06/23 08:33:20;;;;;;;3.33;1.40;;;23.60;99.90;;;;;;5091194;28;20130;-88
2022/06/23 08:35:50;;;;;;;5.05;1.88;;;23.80;99.90;;;;;;5090858;28;20047;-88
2022/06/23 08:38:52;;;;;;;2.22;1.45;;;23.90;99.90;;;;;;5100006;28;20047;-91
2022/06/23 08:41:39;;;;;;;6.25;1.50;;;24.00;99.90;;;;;;5090017;28;20052;-88
2022/06/23 08:44:16;;;;;;;4.45;1.50;;;24.20;99.90;;;;;;5089837;28;20044;-87
2022/06/23 08:47:49;;;;;;;5.20;1.45;;;24.30;99.90;;;;;;5084603;28;20044;-88
2022/06/23 08:50:28;;;;;;;2.67;1.30;;;24.70;99.90;;;;;;5038745;22;20036;-87
2022/06/23 08:57:14;;;;;;;3.58;1.38;;;24.90;99.90;;;;;;5028031;28;20191;-88
2022/06/23 08:59:49;;;;;;;2.97;1.30;;;24.90;99.90;;;;;;5018911;28;20053;-90
2022/06/23 09:02:24;;;;;;;2.15;1.10;;;25.40;99.90;;;;;;5026063;28;20621;-86
2022/06/23 09:05:15;;;;;;;3.22;1.42;;;25.50;99.90;;;;;;5029538;28;20041;-87
2022/06/23 09:08:05;;;;;;;8.55;2.40;;;25.80;99.90;;;;;;5007830;28;20061;-87
2022/06/23 09:14:51;;;;;;;2.30;1.30;;;26.00;99.90;;;;;;5036323;28;20126;-88
2022/06/23 09:17:39;;;;;;;3.28;1.45;;;26.20;99.90;;;;;;5019921;28;20457;-86
2022/06/23 09:20:19;;;;;;;2.50;1.40;;;26.30;99.90;;;;;;5010110;28;20042;-86
2022/06/23 09:23:07;;;;;;;3.78;1.33;;;26.30;99.90;;;;;;5010252;28;20056;-87
2022/06/23 09:25:47;;;;;;;2.63;1.40;;;26.60;99.90;;;;;;5010672;28;20052;-86
2022/06/23 09:28:38;;;;;;;2.88;1.42;;;26.40;99.90;;;;;;5057078;28;20063;-87
2022/06/23 09:31:10;;;;;;;1.33;0.90;;;26.60;99.90;;;;;;5068301;28;20040;-86
2022/06/23 09:33:57;;;;;;;2.70;1.10;;;26.70;98.70;;;;;;5057568;28;20378;-87
2022/06/23 09:36:59;;;;;;;3.05;1.33;;;26.60;99.30;;;;;;5057571;28;20075;-86
2022/06/23 09:39:59;;;;;;;2.20;1.13;;;26.70;99.50;;;;;;5057448;28;20135;-86
2022/06/23 09:42:43;;;;;;;2.35;1.48;;;26.90;99.40;;;;;;5057070;28;20040;-86
2022/06/23 09:45:26;;;;;;;2.58;1.00;;;27.00;98.30;;;;;;5040783;28;20075;-86
2022/06/23 09:48:04;;;;;;;2.92;1.58;;;27.30;96.50;;;;;;5057394;28;20098;-86
2022/06/23 09:50:45;;;;;;;2.85;1.20;;;27.40;96.90;;;;;;5057288;28;20070;-84
2022/06/23 09:53:47;;;;;;;1.50;1.00;;;27.40;97.70;;;;;;5056760;28;20063;-84
2022/06/23 09:56:47;;;;;;;1.55;0.95;;;27.60;97.70;;;;;;5056818;28;20060;-85
2022/06/23 09:59:24;;;;;;;1.60;0.80;;;27.80;95.50;;;;;;5074820;28;20048;-86
2022/06/23 10:02:26;;;;;;;1.23;0.70;;;27.90;96.40;;;;;;5054256;28;20063;-85
2022/06/23 10:04:55;;;;;;;4.57;1.05;;;28.20;96.80;;;;;;5063814;28;20048;-84
2022/06/23 10:07:39;;;;;;;1.73;1.08;;;28.50;94.20;;;;;;5077043;28;20097;-84
2022/06/23 10:10:30;;;;;;;2.58;0.90;;;28.50;94.50;;;;;;5071924;28;20043;-83
2022/06/23 10:13:18;;;;;;;1.45;0.70;;;28.60;95.00;;;;;;5077140;28;20044;-84
2022/06/23 10:16:07;;;;;;;5.07;1.38;;;28.60;91.10;;;;;;5076949;28;20040;-85
2022/06/23 10:18:52;;;;;;;1.73;0.90;;;28.50;92.00;;;;;;5076728;28;20048;-84
2022/06/23 10:21:17;;;;;;;1.20;0.60;;;28.60;91.10;;;;;;5075891;28;20040;-84
2022/06/23 10:23:53;;;;;;;1.05;0.75;;;28.80;92.30;;;;;;5075833;28;20454;-84
2022/06/23 10:26:48;;;;;;;2.25;0.50;;;28.80;91.30;;;;;;5075670;28;20052;-84
2022/06/23 10:29:32;;;;;;;0.80;0.60;;;29.10;91.60;;;;;;5074495;28;20048;-85
2022/06/23 10:32:07;;;;;;;2.13;0.90;;;29.30;90.20;;;;;;5088599;28;20286;-84
2022/06/23 10:35:15;;;;;;;1.70;0.85;;;29.40;90.80;;;;;;5074784;28;20044;-86
2022/06/23 10:38:23;;;;;;;2.00;0.82;;;29.30;87.50;;;;;;4992282;28;20054;-84
2022/06/23 10:41:09;;;;;;;2.60;0.88;;;29.30;89.30;;;;;;5005073;28;20104;-85
2022/06/23 10:43:56;;;;;;;2.30;0.85;;;29.50;90.20;;;;;;4988397;28;20061;-84
2022/06/23 10:46:43;;;;;;;1.70;0.90;;;29.50;88.40;;;;;;4992809;28;20078;-84
2022/06/23 10:49:33;;;;;;;1.63;0.80;;;29.60;88.60;;;;;;4992249;28;20197;-85
2022/06/23 10:52:24;;;;;;;3.38;1.08;;;29.60;85.30;;;;;;4992080;28;20054;-83
2022/06/23 10:54:58;;;;;;;2.00;0.80;;;29.70;85.30;;;;;;4973021;28;20098;-83
2022/06/23 10:57:58;;;;;;;1.40;0.70;;;29.80;81.90;;;;;;4956768;28;20059;-83
2022/06/23 11:00:42;;;;;;;1.38;0.70;;;29.60;85.30;;;;;;4973493;28;20094;-83
2022/06/23 11:03:10;;;;;;;3.38;0.85;;;29.90;87.90;;;;;;4995516;28;20053;-88
2022/06/23 11:06:08;;;;;;;0.88;0.52;;;30.20;85.90;;;;;;4976205;28;20090;-83
2022/06/23 11:08:49;;;;;;;2.88;0.93;;;30.30;82.30;;;;;;4948617;28;20062;-88
2022/06/23 11:11:31;;;;;;;2.25;0.60;;;30.30;78.90;;;;;;4937498;29;20054;-85
2022/06/23 11:14:26;;;;;;;1.33;0.60;;;30.40;76.90;;;;;;4996873;28;20145;-85
2022/06/23 11:17:23;;;;;;;0.88;0.52;;;30.50;80.60;;;;;;5031288;28;20048;-83
2022/06/23 11:20:04;;;;;;;0.60;0.50;;;30.80;77.20;;;;;;5013487;28;20085;-89
2022/06/23 11:22:51;;;;;;;1.35;0.50;;;30.90;77.70;;;;;;5025071;28;20116;-89
2022/06/23 11:25:29;;;;;;;1.65;0.70;;;31.10;74.70;;;;;;5005352;28;20053;-88
2022/06/23 11:28:23;;;;;;;3.08;0.75;;;31.10;75.10;;;;;;4998037;28;20052;-88
2022/06/23 11:31:19;;;;;;;1.30;0.50;;;31.00;75.80;;;;;;5026856;28;20072;-87
2022/06/23 11:34:52;;;;;;;1.17;0.65;;;31.10;74.80;;;;;;5023373;28;20043;-88
2022/06/23 11:49:09;;;;;;;1.38;0.73;;;31.80;71.20;;;;;;5007232;22;20106;-90
2022/06/23 11:52:29;;;;;;;0.93;0.60;;;31.70;73.50;;;;;;5040161;22;20553;-88
2022/06/23 11:59:03;;;;;;;0.70;0.60;;;32.00;72.50;;;;;;5290518;22;20052;-87
2022/06/23 12:04:24;;;;;;;1.08;0.60;;;32.30;71.80;;;;;;4951357;28;20102;-89
2022/06/23 12:14:19;;;;;;;0.93;0.50;;;32.60;69.60;;;;;;5547955;22;20300;-87
2022/06/23 12:20:48;;;;;;;1.20;0.73;;;32.40;70.30;;;;;;4973524;28;20046;-87
2022/06/23 12:24:08;;;;;;;;;;;;;;;;;;;;;
2022/06/23 12:29:42;;;;;;;1.95;0.60;;;32.70;68.90;;;;;;5198844;22;20055;-86
2022/06/23 12:32:47;;;;;;;0.93;0.60;;;32.80;67.90;;;;;;5118633;22;20044;-84
2022/06/23 12:35:33;;;;;;;0.60;0.50;;;32.60;67.20;;;;;;5062865;28;20040;-88
2022/06/23 12:38:20;;;;;;;0.98;0.70;;;33.00;68.50;;;;;;5054908;28;20515;-87
2022/06/23 12:41:00;;;;;;;2.75;0.93;;;33.10;65.70;;;;;;5054669;28;20401;-87
2022/06/23 12:43:42;;;;;;;1.50;0.60;;;33.00;66.90;;;;;;5078474;28;20037;-87
2022/06/23 12:46:18;;;;;;;1.90;0.60;;;33.20;68.00;;;;;;5087078;22;20416;-87
2022/06/23 12:49:02;;;;;;;1.20;0.60;;;33.20;66.50;;;;;;5085179;28;20480;-84
2022/06/23 12:52:05;;;;;;;3.15;0.68;;;33.30;65.90;;;;;;5045066;28;20083;-89
2022/06/23 12:55:08;;;;;;;2.35;0.45;;;33.50;63.90;;;;;;5080224;28;20535;-88
2022/06/23 12:57:53;;;;;;;1.00;0.50;;;33.60;64.00;;;;;;5069638;28;20048;-88
2022/06/23 13:04:48;;;;;;;1.60;0.60;;;33.60;66.20;;;;;;4985349;28;20050;-90
2022/06/23 13:14:28;;;;;;;1.05;0.60;;;33.80;61.10;;;;;;5024707;28;20046;-87
2022/06/23 13:17:02;;;;;;;1.60;0.68;;;33.90;65.00;;;;;;5034026;28;20053;-88
2022/06/23 13:25:34;;;;;;;1.05;0.60;;;34.20;62.70;;;;;;5071685;22;20049;-86
2022/06/23 13:29:08;;;;;;;0.88;0.50;;;34.30;59.50;;;;;;5028051;28;20536;-86
2022/06/23 13:32:22;;;;;;;0.68;0.57;;;34.40;61.00;;;;;;4923728;29;20055;-86
2022/06/23 13:35:06;;;;;;;3.05;0.60;;;34.50;59.40;;;;;;4908274;29;20492;-86
2022/06/23 13:45:31;;;;;;;2.65;0.70;;;34.70;60.20;;;;;;5067177;23;20406;-90
2022/06/23 14:16:44;;;;;;;2.17;0.60;;;35.30;59.40;;;;;;5172904;23;20051;-89
2022/06/23 14:36:34;;;;;;;1.15;0.70;;;35.40;57.60;;;;;;4863577;24;20049;-90
2022/06/23 14:39:24;;;;;;;0.75;0.68;;;35.50;55.90;;;;;;4697627;30;20053;-88
2022/06/23 14:41:53;;;;;;;1.42;0.55;;;35.60;58.10;;;;;;4701195;30;20426;-86
2022/06/23 14:45:22;;;;;;;1.50;0.88;;;35.40;56.10;;;;;;4687820;30;20045;-87
2022/06/23 14:48:10;;;;;;;2.10;0.60;;;35.50;57.10;;;;;;4630888;30;20156;-87
2022/06/23 14:50:41;;;;;;;0.70;0.50;;;35.40;56.80;;;;;;4715689;30;20135;-88
2022/06/23 14:53:14;;;;;;;0.63;0.60;;;35.50;57.10;;;;;;4687341;30;20061;-88
2022/06/23 14:55:58;;;;;;;1.17;0.60;;;35.60;58.80;;;;;;4717247;30;20136;-88
2022/06/23 14:58:51;;;;;;;0.93;0.50;;;35.60;55.60;;;;;;4710777;30;20128;-86
2022/06/23 15:01:36;;;;;;;2.20;0.60;;;35.60;56.50;;;;;;4716894;30;20049;-88
2022/06/23 15:04:23;;;;;;;1.25;0.57;;;35.70;54.30;;;;;;4717147;30;20045;-84
2022/06/23 15:07:16;;;;;;;1.20;0.60;;;35.70;55.70;;;;;;4712735;30;20045;-85
2022/06/23 15:09:52;;;;;;;1.30;0.73;;;35.70;54.70;;;;;;4718869;30;20084;-85
2022/06/23 15:12:36;;;;;;;1.17;0.73;;;35.70;55.60;;;;;;4715692;30;20055;-85
2022/06/23 15:15:26;;;;;;;1.80;0.60;;;35.60;58.30;;;;;;4703355;30;20129;-86
2022/06/23 15:18:12;;;;;;;2.00;0.70;;;35.70;57.10;;;;;;4696706;30;20052;-85
2022/06/23 15:20:47;;;;;;;0.90;0.60;;;35.80;57.40;;;;;;4700748;30;20523;-86
2022/06/23 15:23:42;;;;;;;0.93;0.60;;;35.70;57.80;;;;;;4701606;30;20405;-85
2022/06/23 15:26:27;;;;;;;1.95;0.75;;;35.80;55.70;;;;;;4717032;30;20552;-84
2022/06/23 15:29:26;;;;;;;2.25;0.60;;;35.80;55.50;;;;;;4694701;30;20122;-92
2022/06/23 15:32:32;;;;;;;2.38;0.70;;;35.70;54.30;;;;;;4721124;30;20040;-86
2022/06/23 15:35:14;;;;;;;1.88;1.13;;;35.70;57.60;;;;;;4723985;30;20044;-89
2022/06/23 15:38:02;;;;;;;0.82;0.60;;;35.80;53.90;;;;;;4703765;30;20065;-91
2022/06/23 15:40:43;;;;;;;1.38;0.70;;;35.70;54.40;;;;;;4635778;30;20055;-86
2022/06/23 15:43:16;;;;;;;1.05;0.70;;;35.70;56.60;;;;;;4621043;31;20100;-88
2022/06/23 15:45:50;;;;;;;2.33;0.60;;;35.60;54.80;;;;;;4621493;31;20074;-90
2022/06/23 15:48:40;;;;;;;1.25;0.57;;;35.60;54.60;;;;;;4620786;30;20057;-86
2022/06/23 15:51:19;;;;;;;1.15;0.70;;;35.80;55.10;;;;;;4625841;30;20067;-89
2022/06/23 15:53:50;;;;;;;2.58;0.63;;;35.80;55.40;;;;;;4628638;31;20055;-87
2022/06/23 15:56:22;;;;;;;1.15;0.70;;;35.70;54.20;;;;;;4629005;30;20179;-87
2022/06/23 15:59:09;;;;;;;1.35;0.70;;;35.70;55.00;;;;;;4628791;30;20082;-89
2022/06/23 16:01:41;;;;;;;1.20;0.70;;;35.70;55.10;;;;;;4625668;30;20051;-86
2022/06/23 16:04:28;;;;;;;1.85;0.60;;;35.50;54.70;;;;;;4627686;30;20059;-86
2022/06/23 16:06:57;;;;;;;0.80;0.60;;;35.60;56.10;;;;;;4632612;30;20116;-88
2022/06/23 16:09:44;;;;;;;0.70;0.60;;;35.60;55.50;;;;;;4635698;30;20134;-91
2022/06/23 16:16:34;;;;;;;0.98;0.60;;;35.60;55.40;;;;;;4633888;30;20096;-89
2022/06/23 16:19:19;;;;;;;0.82;0.57;;;35.50;57.80;;;;;;4670149;30;20054;-90
2022/06/23 16:22:49;;;;;;;1.05;0.50;;;35.40;55.20;;;;;;4651465;30;20489;-91
2022/06/23 16:25:33;;;;;;;1.67;0.68;;;35.30;56.80;;;;;;4662592;30;20089;-91
2022/06/23 16:28:13;;;;;;;0.77;0.60;;;35.10;57.30;;;;;;4665526;30;20504;-91
2022/06/23 16:30:48;;;;;;;0.98;0.65;;;35.10;55.30;;;;;;4687603;24;20504;-91
2022/06/23 16:40:24;;;;;;;2.72;0.82;;;34.60;56.20;;;;;;4746626;30;20044;-92
2022/06/23 16:49:17;;;;;;;1.30;0.57;;;34.10;57.40;;;;;;4732418;24;20109;-90
2022/06/23 16:55:08;;;;;;;1.85;0.60;;;33.80;57.00;;;;;;4887284;24;20068;-89
2022/06/23 17:00:24;;;;;;;1.15;0.80;;;33.50;59.10;;;;;;4774954;24;20108;-88
2022/06/23 17:03:19;;;;;;;1.42;0.70;;;33.30;60.10;;;;;;4737121;30;20094;-90
2022/06/23 17:05:47;;;;;;;2.35;0.68;;;33.20;59.40;;;;;;4748336;30;20051;-89